Time;durP1;ratioP1;P1;durP2;ratioP2;P2;SDS_P1;SDS_P2;PMS_P1;PMS_P2;Temp;Humidity;BMP_temperature;BMP_pressure;BME280_temperature;BME280_humidity;BME280_pressure;Samples;Min_cycle;Max_cycle;Signal;HPM_P1;HPM_P2
2022/05/27 00:00:26;;;;;;;3.25;1.27;;;;;;;17.12;61.10;101162.38;5085323;28;20028;-48
2022/05/27 00:02:52;;;;;;;3.53;1.60;;;;;;;17.11;61.13;101155.38;5099552;28;20069;-43
2022/05/27 00:05:19;;;;;;;7.40;1.52;;;;;;;17.12;61.08;101151.75;5088784;28;20431;-43
2022/05/27 00:07:44;;;;;;;3.53;1.50;;;;;;;17.12;61.17;101143.78;5090904;28;20069;-46
2022/05/27 00:10:12;;;;;;;4.50;1.33;;;;;;;17.11;61.37;101139.44;5076982;28;20024;-43
2022/05/27 00:12:38;;;;;;;3.85;1.70;;;;;;;17.10;61.31;101135.06;5088858;28;20030;-43
2022/05/27 00:15:05;;;;;;;3.40;1.80;;;;;;;17.07;61.41;101133.53;5086079;28;20111;-43
2022/05/27 00:17:30;;;;;;;2.22;1.50;;;;;;;17.02;61.46;101125.03;5089703;28;20056;-47
2022/05/27 00:19:55;;;;;;;3.38;1.73;;;;;;;16.97;61.66;101116.59;5085864;28;20055;-43
2022/05/27 00:22:21;;;;;;;2.63;1.98;;;;;;;16.93;61.78;101121.28;5089961;28;20030;-48
2022/05/27 00:24:46;;;;;;;5.85;1.80;;;;;;;16.90;62.04;101118.84;5085899;28;20036;-43
2022/05/27 00:27:12;;;;;;;2.95;2.05;;;;;;;16.87;62.13;101113.75;5082714;28;21283;-51
2022/05/27 00:29:38;;;;;;;4.28;2.03;;;;;;;16.84;62.21;101112.22;5081208;28;20043;-47
2022/05/27 00:32:06;;;;;;;5.95;2.40;;;;;;;16.80;62.18;101109.91;5079641;28;20034;-46
2022/05/27 00:34:32;;;;;;;4.95;2.20;;;;;;;16.72;62.44;101111.34;5088649;28;20028;-48
2022/05/27 00:37:01;;;;;;;2.92;2.10;;;;;;;16.65;62.58;101110.16;5086567;28;20040;-44
2022/05/27 00:39:27;;;;;;;6.23;2.23;;;;;;;16.60;62.59;101099.03;5085417;28;20036;-42
2022/05/27 00:41:52;;;;;;;4.85;2.50;;;;;;;16.56;62.85;101100.25;5085517;28;20399;-54
2022/05/27 00:44:18;;;;;;;4.18;2.28;;;;;;;16.53;63.22;101097.81;5083593;28;20067;-48
2022/05/27 00:46:44;;;;;;;3.75;2.30;;;;;;;16.52;63.25;101093.47;5086737;28;20028;-43
2022/05/27 00:49:12;;;;;;;3.95;2.50;;;;;;;16.50;63.38;101087.44;5084926;28;20024;-48
2022/05/27 00:51:57;;;;;;;3.45;2.65;;;;;;;16.43;63.64;101082.59;5088617;28;20094;-43
2022/05/27 00:54:25;;;;;;;5.68;2.70;;;;;;;16.38;63.93;101082.13;5086557;28;20028;-43
2022/05/27 00:57:00;;;;;;;3.45;2.92;;;;;;;16.36;64.07;101086.69;5080273;28;20076;-46
2022/05/27 00:59:36;;;;;;;4.60;2.80;;;;;;;16.34;64.32;101078.00;5085626;28;20032;-45
2022/05/27 01:02:02;;;;;;;3.45;2.38;;;;;;;16.27;64.39;101072.31;5088585;28;20028;-42
2022/05/27 01:04:29;;;;;;;3.42;3.00;;;;;;;16.25;64.75;101073.41;5085138;28;20040;-43
2022/05/27 01:06:55;;;;;;;3.95;2.58;;;;;;;16.23;64.45;101080.63;5083255;28;20381;-52
2022/05/27 01:09:22;;;;;;;4.47;3.10;;;;;;;16.18;64.92;101077.47;5088090;28;20176;-42
2022/05/27 01:12:05;;;;;;;4.88;2.83;;;;;;;16.15;65.20;101073.25;5082757;28;20039;-42
2022/05/27 01:14:48;;;;;;;5.88;2.83;;;;;;;16.10;65.15;101064.78;5081328;28;20473;-43
2022/05/27 01:17:41;;;;;;;4.10;3.05;;;;;;;16.08;65.30;101059.59;5083483;28;20392;-44
2022/05/27 01:20:25;;;;;;;4.32;2.75;;;;;;;16.06;65.34;101072.13;5077320;28;20024;-44
2022/05/27 01:23:09;;;;;;;4.68;3.38;;;;;;;16.04;65.47;101058.13;5095862;28;20028;-42
2022/05/27 01:25:53;;;;;;;6.22;3.00;;;;;;;16.03;65.63;101058.25;5081624;28;20042;-43
2022/05/27 01:28:37;;;;;;;5.03;3.03;;;;;;;16.00;65.84;101054.88;5078805;28;20047;-47
2022/05/27 01:31:11;;;;;;;3.50;2.83;;;;;;;15.99;65.86;101055.84;5088545;28;20035;-43
2022/05/27 01:33:49;;;;;;;6.15;3.65;;;;;;;16.02;66.01;101046.78;5084774;28;20032;-42
2022/05/27 01:36:22;;;;;;;4.57;3.60;;;;;;;16.03;66.20;101047.66;5098129;28;20024;-47
2022/05/27 01:39:02;;;;;;;4.05;3.35;;;;;;;16.04;66.12;101047.53;5088114;28;20052;-43
2022/05/27 01:41:33;;;;;;;3.83;3.40;;;;;;;16.04;66.28;101044.88;5095749;28;20420;-43
2022/05/27 01:44:07;;;;;;;4.28;3.33;;;;;;;16.00;66.42;101044.25;5084378;28;20146;-44
2022/05/27 01:46:45;;;;;;;3.92;3.60;;;;;;;15.99;66.54;101037.25;5089278;28;20112;-52
2022/05/27 01:49:49;;;;;;;4.57;3.75;;;;;;;15.99;66.70;101029.31;5090096;28;20024;-43
2022/05/27 01:52:15;;;;;;;6.25;4.00;;;;;;;16.03;66.55;101042.34;5038477;28;20082;-45
2022/05/27 01:55:08;;;;;;;4.63;3.80;;;;;;;16.04;66.60;101028.94;5075362;28;20044;-49
2022/05/27 01:57:43;;;;;;;12.43;6.03;;;;;;;16.05;66.60;101025.31;5081308;28;20106;-44
2022/05/27 02:00:27;;;;;;;5.43;3.90;;;;;;;16.07;66.64;101034.03;5087713;28;20403;-46
2022/05/27 02:03:10;;;;;;;4.47;3.95;;;;;;;16.10;66.62;101025.81;5087806;28;20128;-50
2022/05/27 02:05:55;;;;;;;4.40;3.85;;;;;;;16.10;66.45;101027.63;5089310;28;20019;-45
2022/05/27 02:08:24;;;;;;;4.60;3.65;;;;;;;16.07;66.43;101025.19;5084980;28;20094;-42
2022/05/27 02:11:04;;;;;;;4.32;3.92;;;;;;;16.04;66.74;101018.31;5084833;28;20039;-44
2022/05/27 02:13:40;;;;;;;4.72;3.67;;;;;;;16.03;66.89;101013.97;5087727;28;20035;-44
2022/05/27 02:16:11;;;;;;;4.15;3.70;;;;;;;16.05;67.00;101014.72;5090562;28;20036;-44
2022/05/27 02:18:45;;;;;;;3.67;3.28;;;;;;;16.03;66.79;101011.31;5094062;28;20020;-49
2022/05/27 02:21:27;;;;;;;4.40;3.50;;;;;;;16.01;66.93;100999.97;5092934;28;20085;-50
2022/05/27 02:24:10;;;;;;;5.45;3.50;;;;;;;16.00;66.82;101008.91;5088227;28;20101;-49
2022/05/27 02:26:47;;;;;;;5.18;3.70;;;;;;;15.99;66.87;100996.59;5091918;28;20395;-48
2022/05/27 02:29:18;;;;;;;5.45;3.78;;;;;;;16.00;67.01;101006.25;5086765;28;20028;-46
2022/05/27 02:31:49;;;;;;;4.65;4.13;;;;;;;16.00;66.84;100996.50;5089781;28;20097;-49
2022/05/27 02:37:31;;;;;;;4.68;3.95;;;;;;;16.05;66.87;101004.09;5082562;28;20760;-46
2022/05/27 02:40:01;;;;;;;4.97;3.70;;;;;;;16.05;66.92;101003.22;5082032;28;20054;-47
2022/05/27 02:42:26;;;;;;;4.88;4.00;;;;;;;16.05;67.01;101005.88;5089152;28;20032;-47
2022/05/27 02:45:29;;;;;;;3.83;3.45;;;;;;;16.02;67.04;101001.66;5091115;28;20047;-51
2022/05/27 02:48:04;;;;;;;4.35;3.95;;;;;;;16.02;67.12;101009.63;5079597;28;20077;-46
2022/05/27 02:50:54;;;;;;;5.07;4.05;;;;;;;16.04;67.20;101018.31;5086917;28;20028;-46
2022/05/27 02:53:36;;;;;;;5.05;3.80;;;;;;;16.03;67.30;101010.50;5088451;28;20107;-53
2022/05/27 02:56:13;;;;;;;5.95;4.45;;;;;;;15.98;67.46;101002.84;5085260;28;20043;-49
2022/05/27 02:58:39;;;;;;;6.55;4.03;;;;;;;15.92;67.46;101011.31;5091894;28;20024;-47
2022/05/27 03:01:05;;;;;;;5.97;3.85;;;;;;;15.90;67.59;101006.09;5092726;28;20026;-51
2022/05/27 03:03:31;;;;;;;4.43;4.03;;;;;;;15.90;67.56;101011.41;5099507;28;20023;-50
2022/05/27 03:06:24;;;;;;;5.38;4.25;;;;;;;15.83;67.74;101005.69;5089868;28;20028;-51
2022/05/27 03:09:01;;;;;;;4.55;4.05;;;;;;;15.79;68.02;101021.97;5089821;28;20480;-50
2022/05/27 03:11:42;;;;;;;7.80;4.30;;;;;;;15.75;67.92;101013.41;5094677;28;20085;-49
2022/05/27 03:14:43;;;;;;;5.38;4.05;;;;;;;15.72;67.72;101016.28;5092119;28;20487;-50
2022/05/27 03:17:43;;;;;;;6.68;4.20;;;;;;;15.73;67.78;101009.19;5068753;28;20047;-47
2022/05/27 03:20:16;;;;;;;7.03;4.88;;;;;;;15.72;67.76;101010.97;5084491;28;20040;-49
2022/05/27 03:23:04;;;;;;;7.38;4.10;;;;;;;15.73;67.46;101007.34;5087407;28;20098;-48
2022/05/27 03:25:43;;;;;;;5.38;4.10;;;;;;;15.74;67.44;101001.09;5086865;28;20085;-46
2022/05/27 03:28:18;;;;;;;4.45;3.65;;;;;;;15.76;67.35;100999.16;5070794;28;20028;-49
2022/05/27 03:31:08;;;;;;;4.82;3.75;;;;;;;15.72;67.53;101005.66;5090788;28;20027;-50
2022/05/27 03:33:47;;;;;;;5.28;3.75;;;;;;;15.74;67.43;101000.22;5097428;28;20368;-50
2022/05/27 03:36:18;;;;;;;;;;;;;;;15.74;67.24;101002.88;5098678;28;20435;-50
2022/05/27 03:38:54;;;;;;;7.30;3.70;;;;;;;15.76;67.03;101006.25;5086674;28;19916;-49
2022/05/27 03:41:28;;;;;;;5.32;3.70;;;;;;;15.79;66.99;101009.56;5091776;28;20096;-49
2022/05/27 03:43:54;;;;;;;3.78;3.20;;;;;;;15.83;67.06;101018.13;5097806;28;20023;-48
2022/05/27 03:46:30;;;;;;;4.90;3.28;;;;;;;15.85;66.79;101016.22;5097855;28;20047;-51
2022/05/27 03:48:56;;;;;;;6.00;3.92;;;;;;;15.83;66.77;101010.16;5092160;28;20124;-48
2022/05/27 03:51:26;;;;;;;6.32;3.63;;;;;;;15.82;67.03;101022.56;5091569;28;20106;-49
2022/05/27 03:54:03;;;;;;;6.32;3.25;;;;;;;15.81;66.70;101007.59;5096033;28;20024;-47
2022/05/27 03:56:40;;;;;;;5.90;3.20;;;;;;;15.80;66.78;101016.56;5093601;28;20109;-49
2022/05/27 03:59:12;;;;;;;5.75;3.47;;;;;;;15.76;66.92;101004.47;5086680;28;20081;-46
2022/05/27 04:01:41;;;;;;;7.85;3.72;;;;;;;15.75;66.64;101009.88;5091382;28;20513;-46
2022/05/27 04:04:10;;;;;;;5.82;3.30;;;;;;;15.71;66.80;101017.22;5091261;28;20487;-50
2022/05/27 04:06:36;;;;;;;5.18;3.00;;;;;;;15.69;66.88;100997.94;5088725;28;20055;-47
2022/05/27 04:09:03;;;;;;;6.60;3.63;;;;;;;15.72;66.83;101007.47;5087473;28;20477;-47
2022/05/27 04:11:29;;;;;;;6.32;3.13;;;;;;;15.71;66.75;101006.63;5093566;28;20023;-47
2022/05/27 04:13:55;;;;;;;5.28;3.20;;;;;;;15.72;66.91;100995.06;5094481;28;20369;-44
2022/05/27 04:16:20;;;;;;;4.95;3.40;;;;;;;15.76;66.65;100999.16;5091992;28;20031;-49
2022/05/27 04:18:46;;;;;;;8.05;3.50;;;;;;;15.77;66.63;101006.16;5084934;28;20043;-49
2022/05/27 04:21:12;;;;;;;6.38;2.97;;;;;;;15.77;66.54;100986.75;5088504;28;20471;-47
2022/05/27 04:23:38;;;;;;;4.28;3.20;;;;;;;15.79;66.42;100980.38;5094674;28;20739;-49
2022/05/27 04:26:04;;;;;;;5.30;3.30;;;;;;;15.83;66.34;100983.63;5083843;28;20100;-47
2022/05/27 04:28:30;;;;;;;5.43;3.42;;;;;;;15.87;66.19;100976.31;5084508;28;20113;-46
2022/05/27 04:30:55;;;;;;;6.43;3.30;;;;;;;15.90;66.17;100984.03;5090641;28;20115;-48
2022/05/27 04:33:21;;;;;;;6.03;3.78;;;;;;;15.89;66.10;100983.19;5088246;28;20032;-44
2022/05/27 04:35:47;;;;;;;6.68;3.80;;;;;;;15.90;66.08;100990.16;5101813;28;20032;-46
2022/05/27 04:38:13;;;;;;;5.10;3.30;;;;;;;15.91;65.96;100991.03;5086838;28;20392;-47
2022/05/27 04:40:39;;;;;;;7.40;3.42;;;;;;;15.89;66.06;100977.03;5087423;28;20030;-50
2022/05/27 04:43:06;;;;;;;6.05;3.55;;;;;;;15.90;66.08;100984.88;5082797;28;20028;-49
2022/05/27 04:45:31;;;;;;;4.20;2.78;;;;;;;15.94;65.92;101007.56;5092014;28;20546;-47
2022/05/27 04:47:57;;;;;;;5.43;3.10;;;;;;;15.94;65.83;101025.31;5091256;28;20035;-49
2022/05/27 04:50:23;;;;;;;5.45;3.35;;;;;;;15.90;65.69;101014.06;5089908;28;20517;-46
2022/05/27 04:52:48;;;;;;;6.10;3.40;;;;;;;15.91;65.80;100996.34;5088682;28;20032;-48
2022/05/27 04:55:16;;;;;;;10.45;3.30;;;;;;;15.90;65.71;100986.69;5090355;28;20062;-49
2022/05/27 04:57:51;;;;;;;4.22;3.15;;;;;;;15.89;65.95;100985.00;5090229;28;20036;-48
2022/05/27 05:00:18;;;;;;;7.55;3.53;;;;;;;15.88;65.92;100983.31;5086155;28;20035;-43
2022/05/27 05:02:44;;;;;;;5.65;2.97;;;;;;;15.90;65.81;100997.31;5088457;28;20023;-46
2022/05/27 05:05:13;;;;;;;4.68;2.97;;;;;;;15.88;65.72;100970.91;5083703;28;20036;-48
2022/05/27 05:07:42;;;;;;;4.47;3.08;;;;;;;15.89;65.71;100987.66;5086134;28;20034;-44
2022/05/27 05:10:10;;;;;;;4.63;2.90;;;;;;;15.93;65.66;100983.81;5086413;28;20090;-49
2022/05/27 05:12:36;;;;;;;5.18;2.90;;;;;;;15.92;65.76;100993.56;5083191;28;20123;-50
2022/05/27 05:15:01;;;;;;;4.38;2.55;;;;;;;15.94;65.65;100982.84;5093027;28;20108;-49
2022/05/27 05:17:27;;;;;;;6.95;2.83;;;;;;;15.90;65.87;100998.13;5084491;28;20093;-47
2022/05/27 05:19:56;;;;;;;5.68;2.60;;;;;;;15.91;65.85;100999.00;5088292;28;20129;-48
2022/05/27 05:22:22;;;;;;;7.70;2.97;;;;;;;15.92;65.79;101019.25;5082026;28;20031;-49
2022/05/27 05:24:53;;;;;;;8.93;3.05;;;;;;;15.91;65.54;101012.25;5087166;28;20028;-49
2022/05/27 05:27:19;;;;;;;6.15;2.85;;;;;;;15.90;65.43;101023.84;5090217;28;20032;-50
2022/05/27 05:29:44;;;;;;;7.05;2.83;;;;;;;15.83;65.54;101005.69;5080285;28;20028;-46
2022/05/27 05:32:10;;;;;;;6.78;3.10;;;;;;;15.84;65.39;101015.34;5086106;28;20031;-49
2022/05/27 05:34:35;;;;;;;5.72;2.75;;;;;;;15.80;65.34;101011.25;5085374;28;20024;-45
2022/05/27 05:37:01;;;;;;;5.68;2.40;;;;;;;15.80;65.29;101013.91;5084647;28;20077;-49
2022/05/27 05:39:26;;;;;;;4.90;2.65;;;;;;;15.82;65.30;100998.69;5088727;28;20031;-46
2022/05/27 05:42:03;;;;;;;6.22;2.80;;;;;;;15.81;65.48;100991.69;5085962;28;20403;-44
2022/05/27 05:44:31;;;;;;;8.80;2.77;;;;;;;15.82;65.00;101004.00;5093517;28;20023;-49
2022/05/27 05:46:58;;;;;;;4.97;2.15;;;;;;;15.82;65.18;100982.75;5083098;28;20098;-47
2022/05/27 05:49:23;;;;;;;6.43;2.40;;;;;;;15.83;64.67;100979.16;5082841;28;20028;-46
2022/05/27 05:51:51;;;;;;;6.78;2.97;;;;;;;15.89;64.34;101004.41;5084389;28;20438;-48
2022/05/27 05:54:17;;;;;;;4.60;2.13;;;;;;;15.89;63.78;101006.22;5085039;28;20051;-47
2022/05/27 05:56:43;;;;;;;12.77;6.90;;;;;;;15.84;63.74;101002.06;5084887;28;20082;-47
2022/05/27 05:59:08;;;;;;;5.10;2.05;;;;;;;15.88;63.79;101004.53;5085890;28;20025;-43
2022/05/27 06:01:34;;;;;;;5.70;2.03;;;;;;;15.93;63.33;101002.38;5083872;28;20056;-49
2022/05/27 06:03:59;;;;;;;4.70;2.15;;;;;;;15.97;63.39;101006.47;5088350;28;21795;-42
2022/05/27 06:06:25;;;;;;;3.60;2.00;;;;;;;16.02;62.87;101014.94;5091189;28;20031;-45
2022/05/27 06:08:50;;;;;;;5.40;2.00;;;;;;;16.00;62.64;101000.94;5072493;28;20020;-50
2022/05/27 06:11:16;;;;;;;4.22;1.75;;;;;;;16.00;62.44;101000.94;5090814;28;20031;-49
2022/05/27 06:13:41;;;;;;;4.28;1.70;;;;;;;16.00;62.11;100995.63;5086525;28;20035;-46
2022/05/27 06:16:09;;;;;;;4.63;2.05;;;;;;;16.01;62.16;100986.69;5086721;28;20488;-48
2022/05/27 06:18:35;;;;;;;3.85;1.67;;;;;;;16.04;61.52;101001.53;5087902;28;20482;-46
2022/05/27 06:21:01;;;;;;;5.28;1.70;;;;;;;16.02;61.12;101000.84;5088342;28;20030;-47
2022/05/27 06:23:28;;;;;;;4.78;1.85;;;;;;;16.03;61.26;101000.72;5083642;28;20019;-49
2022/05/27 06:25:58;;;;;;;5.50;2.17;;;;;;;16.07;60.97;100980.94;5093367;28;20073;-50
2022/05/27 06:36:37;;;;;;;7.68;1.70;;;;;;;16.13;58.28;100979.59;5089967;28;20039;-46
2022/05/27 06:39:05;;;;;;;4.60;1.60;;;;;;;16.12;57.96;100978.75;5085874;28;20152;-50
2022/05/27 06:41:31;;;;;;;3.85;1.50;;;;;;;16.13;57.65;100984.91;5090805;28;20043;-46
2022/05/27 06:43:56;;;;;;;6.05;2.03;;;;;;;16.11;57.80;100982.38;5082169;28;20031;-48
2022/05/27 06:46:22;;;;;;;2.55;1.38;;;;;;;16.09;57.31;100989.63;5084326;28;20032;-47
2022/05/27 06:48:48;;;;;;;4.90;1.60;;;;;;;16.11;56.82;100982.38;5092553;28;20017;-46
2022/05/27 06:51:13;;;;;;;3.88;1.67;;;;;;;16.12;56.52;100992.03;5106849;28;20111;-48
2022/05/27 06:53:39;;;;;;;5.90;1.48;;;;;;;16.12;55.99;101005.28;5088373;28;20036;-47
2022/05/27 06:56:07;;;;;;;5.43;1.60;;;;;;;16.18;55.29;100988.06;5089957;28;20047;-48
2022/05/27 06:58:33;;;;;;;4.43;1.40;;;;;;;16.21;54.45;101009.03;5087547;28;20393;-48
2022/05/27 07:00:59;;;;;;;5.07;1.50;;;;;;;16.25;53.95;100983.13;5094811;28;20036;-49
2022/05/27 07:03:24;;;;;;;5.78;1.60;;;;;;;16.26;53.86;100980.34;5091275;28;20113;-50
2022/05/27 07:05:50;;;;;;;4.90;1.63;;;;;;;16.30;54.07;100984.47;5088878;28;20427;-51
2022/05/27 07:08:16;;;;;;;3.95;1.40;;;;;;;16.34;53.33;101000.97;5089403;28;20036;-48
2022/05/27 07:10:41;;;;;;;2.33;1.30;;;;;;;16.38;53.43;100983.00;5088607;28;20020;-52
2022/05/27 07:13:07;;;;;;;2.60;1.30;;;;;;;16.37;52.81;100971.53;5090344;28;20044;-51
2022/05/27 07:15:32;;;;;;;5.57;1.48;;;;;;;16.25;51.55;100983.13;5085006;28;20472;-47
2022/05/27 07:17:58;;;;;;;5.20;1.50;;;;;;;16.27;51.57;100994.44;5091790;28;20162;-46
2022/05/27 07:20:24;;;;;;;4.63;1.40;;;;;;;16.17;49.76;101022.69;5092956;28;20131;-50
2022/05/27 07:22:50;;;;;;;10.40;2.15;;;;;;;16.10;49.40;101001.06;5084971;28;20048;-49
2022/05/27 07:25:16;;;;;;;3.13;1.15;;;;;;;15.94;48.54;100999.59;5090539;28;20426;-50
2022/05/27 07:27:44;;;;;;;5.45;1.27;;;;;;;15.93;48.83;101005.03;5092523;28;20657;-50
2022/05/27 07:30:10;;;;;;;5.40;1.30;;;;;;;15.92;48.48;100998.03;5092706;28;20023;-47
2022/05/27 07:32:37;;;;;;;3.83;1.17;;;;;;;15.97;48.07;100998.50;5101390;28;20023;-50
2022/05/27 07:35:04;;;;;;;4.90;1.20;;;;;;;15.98;47.41;101005.50;5088371;28;20476;-48
2022/05/27 07:37:30;;;;;;;4.30;1.10;;;;;;;15.99;46.54;100993.94;5094748;28;20081;-49
2022/05/27 07:39:55;;;;;;;5.40;1.23;;;;;;;15.99;46.56;100993.94;5100559;28;20036;-48
2022/05/27 07:42:21;;;;;;;3.88;1.30;;;;;;;16.01;46.38;100992.00;5093522;28;20033;-46
2022/05/27 07:44:46;;;;;;;7.85;1.40;;;;;;;16.03;45.71;100987.44;5093542;28;20067;-47
2022/05/27 07:47:12;;;;;;;6.45;1.40;;;;;;;16.07;46.02;101010.13;5086539;28;20062;-49
2022/05/27 07:49:37;;;;;;;4.32;1.40;;;;;;;16.13;45.74;101001.69;5091801;28;20032;-50
2022/05/27 07:52:05;;;;;;;5.10;1.30;;;;;;;16.17;45.17;101052.75;5092158;28;20028;-45
2022/05/27 07:54:30;;;;;;;6.32;1.30;;;;;;;16.15;44.83;101010.38;5085400;28;20034;-51
2022/05/27 07:56:56;;;;;;;3.70;1.10;;;;;;;16.13;44.70;101000.84;5081109;28;20028;-50
2022/05/27 07:59:22;;;;;;;6.10;1.80;;;;;;;16.14;44.75;100997.22;5085966;28;20074;-45
2022/05/27 08:01:47;;;;;;;7.93;1.50;;;;;;;16.18;44.82;101016.41;5085923;28;20031;-50
2022/05/27 08:04:13;;;;;;;5.70;1.48;;;;;;;16.24;44.62;101008.81;5087965;28;20028;-47
2022/05/27 08:06:39;;;;;;;3.50;1.63;;;;;;;16.25;44.07;101021.13;5096851;28;20048;-44
2022/05/27 08:09:05;;;;;;;4.25;1.25;;;;;;;16.22;43.82;101004.59;5094198;28;20099;-47
2022/05/27 08:11:30;;;;;;;5.88;1.27;;;;;;;16.25;44.22;101025.59;5099391;28;20051;-49
2022/05/27 08:13:56;;;;;;;4.03;1.10;;;;;;;16.26;43.42;101032.63;5094230;28;20092;-45
2022/05/27 08:16:22;;;;;;;4.45;1.20;;;;;;;16.24;43.13;101018.59;5090515;28;20036;-45
2022/05/27 08:18:48;;;;;;;4.53;1.10;;;;;;;16.20;42.75;101030.41;5070826;28;20108;-50
2022/05/27 08:21:13;;;;;;;3.33;1.17;;;;;;;16.21;41.93;101011.69;5081583;28;20111;-47
2022/05/27 08:23:39;;;;;;;4.28;1.20;;;;;;;16.25;41.64;101012.34;5089472;28;20032;-50
2022/05/27 08:26:04;;;;;;;7.57;1.33;;;;;;;16.29;40.67;101016.41;5090763;28;20027;-47
2022/05/27 08:28:30;;;;;;;5.65;1.17;;;;;;;16.30;39.77;101007.50;5088689;28;20039;-47
2022/05/27 08:30:57;;;;;;;4.07;1.10;;;;;;;16.31;39.96;101006.53;5083627;28;20051;-48
2022/05/27 08:33:24;;;;;;;6.00;1.30;;;;;;;16.36;39.75;101017.66;5092891;28;20107;-48
2022/05/27 08:38:35;;;;;;;3.90;1.00;;;;;;;16.32;37.25;101026.81;5086262;28;20050;-49
2022/05/27 08:41:01;;;;;;;4.72;1.20;;;;;;;16.38;37.56;101010.41;5089522;28;20496;-50
2022/05/27 08:43:32;;;;;;;3.90;1.05;;;;;;;16.37;37.78;101022.00;5096035;28;20032;-48
2022/05/27 08:46:21;;;;;;;5.20;1.02;;;;;;;16.42;37.54;101006.53;5090845;28;20066;-47
2022/05/27 08:48:50;;;;;;;6.95;1.40;;;;;;;16.46;37.96;101061.09;5083274;28;20043;-48
2022/05/27 08:51:21;;;;;;;3.33;1.13;;;;;;;16.53;38.17;101018.13;5090584;28;20070;-47
2022/05/27 08:54:02;;;;;;;3.28;1.00;;;;;;;16.58;37.79;101016.81;5085564;28;20081;-47
2022/05/27 08:59:28;;;;;;;5.68;1.10;;;;;;;16.65;37.60;101011.84;5088110;28;20023;-48
2022/05/27 09:02:20;;;;;;;6.35;1.27;;;;;;;16.67;37.77;101020.53;5087911;28;20035;-49
2022/05/27 09:05:19;;;;;;;4.82;1.40;;;;;;;16.70;36.76;101008.81;5082227;28;20093;-47
2022/05/27 09:08:00;;;;;;;6.05;1.20;;;;;;;16.71;37.10;101024.63;5084005;28;20024;-48
2022/05/27 09:10:46;;;;;;;3.75;1.15;;;;;;;16.72;36.87;101021.00;5084731;28;20124;-48
2022/05/27 09:13:29;;;;;;;3.92;1.20;;;;;;;16.69;37.78;101013.31;5092602;28;20028;-47
2022/05/27 09:16:20;;;;;;;5.47;1.15;;;;;;;16.78;38.10;101030.34;5080061;28;20525;-48
2022/05/27 09:19:05;;;;;;;2.95;1.00;;;;;;;16.82;38.25;101017.63;5082335;28;20063;-47
2022/05/27 09:21:30;;;;;;;4.22;1.27;;;;;;;16.84;38.14;101021.03;5086438;28;21764;-48
2022/05/27 09:24:15;;;;;;;6.18;1.20;;;;;;;16.76;37.07;101014.50;5086495;28;20036;-48
2022/05/27 09:26:44;;;;;;;4.50;1.20;;;;;;;16.80;37.41;101024.88;5083029;28;20402;-47
2022/05/27 09:29:34;;;;;;;4.78;1.30;;;;;;;16.89;37.23;101010.84;5086872;28;20027;-48
2022/05/27 09:32:20;;;;;;;3.83;1.02;;;;;;;16.97;37.17;101044.81;5083007;28;20510;-50
2022/05/27 09:34:49;;;;;;;5.07;1.00;;;;;;;16.97;37.64;101039.50;5087799;28;20446;-49
2022/05/27 09:37:27;;;;;;;5.18;1.30;;;;;;;16.85;38.05;101028.84;5093759;28;20028;-46
2022/05/27 09:40:00;;;;;;;8.10;1.50;;;;;;;16.74;38.22;101066.06;5083588;28;20028;-48
2022/05/27 09:42:35;;;;;;;6.22;1.35;;;;;;;16.72;38.25;101020.19;5088616;28;20415;-47
2022/05/27 09:45:01;;;;;;;4.45;1.25;;;;;;;16.72;38.41;101018.34;5086921;28;20023;-48
2022/05/27 09:47:32;;;;;;;8.40;1.27;;;;;;;16.80;38.10;101015.06;5083551;28;20031;-49
2022/05/27 09:50:00;;;;;;;4.45;1.10;;;;;;;16.81;37.34;101006.16;5080728;28;20466;-51
2022/05/27 09:52:31;;;;;;;4.30;1.30;;;;;;;16.95;37.23;101025.47;5082848;28;20079;-49
2022/05/27 09:55:00;;;;;;;5.53;1.15;;;;;;;16.99;36.67;101029.59;5081860;28;20041;-47
2022/05/27 09:57:32;;;;;;;6.85;1.70;;;;;;;17.05;36.77;101027.28;5086420;28;20039;-48
2022/05/27 10:00:04;;;;;;;4.00;1.30;;;;;;;17.03;36.50;101025.72;5085382;28;20035;-47
2022/05/27 10:02:35;;;;;;;5.38;1.15;;;;;;;17.10;36.33;101047.34;5087090;28;20032;-48
2022/05/27 10:05:13;;;;;;;3.22;1.20;;;;;;;17.15;35.94;101014.09;5079841;28;20036;-49
2022/05/27 10:07:45;;;;;;;4.32;1.30;;;;;;;17.22;35.65;101019.75;5084983;28;20505;-47
2022/05/27 10:10:40;;;;;;;5.85;1.65;;;;;;;17.26;34.43;101031.84;5075212;28;20034;-47
2022/05/27 10:13:18;;;;;;;4.68;1.02;;;;;;;17.35;34.20;101016.94;5072194;28;20032;-48
2022/05/27 10:15:45;;;;;;;7.53;3.60;;;;;;;17.37;34.17;101018.50;5073578;28;20031;-48
2022/05/27 10:18:22;;;;;;;4.90;1.25;;;;;;;17.37;34.80;101030.97;5078040;28;20036;-47
2022/05/27 10:21:13;;;;;;;5.68;1.23;;;;;;;17.30;35.54;101012.00;5076037;28;20036;-48
2022/05/27 10:23:46;;;;;;;4.60;0.95;;;;;;;17.26;36.01;101002.59;5071968;28;20533;-49
2022/05/27 10:26:21;;;;;;;8.05;1.20;;;;;;;17.29;35.09;101018.28;5078824;28;20089;-50
2022/05/27 10:29:15;;;;;;;5.13;1.30;;;;;;;17.35;34.26;101006.31;5078492;28;20123;-51
2022/05/27 10:31:53;;;;;;;2.78;0.90;;;;;;;17.45;34.26;101014.38;5081921;28;20427;-50
2022/05/27 10:34:46;;;;;;;7.30;1.30;;;;;;;17.44;33.38;100997.56;5082365;28;20035;-49
2022/05/27 10:37:30;;;;;;;4.40;0.88;;;;;;;17.46;33.75;101016.06;5079036;28;20028;-50
2022/05/27 10:40:15;;;;;;;6.85;1.00;;;;;;;17.49;33.46;101006.00;5084237;28;20021;-46
2022/05/27 10:43:11;;;;;;;7.80;1.20;;;;;;;17.51;33.38;101016.50;5077064;28;20039;-47
2022/05/27 10:45:42;;;;;;;2.35;0.85;;;;;;;17.47;33.11;101017.75;5080215;28;20032;-49
2022/05/27 10:48:29;;;;;;;3.92;1.10;;;;;;;17.41;33.33;101011.09;5080691;28;20012;-48
2022/05/27 10:51:23;;;;;;;4.88;1.30;;;;;;;17.40;33.17;101032.50;5082711;28;20384;-47
2022/05/27 10:54:41;;;;;;;3.47;1.00;;;;;;;17.41;33.26;101012.94;5086789;28;20020;-48
2022/05/27 11:03:38;;;;;;;4.80;1.00;;;;;;;17.73;31.85;100996.94;5086928;28;20145;-47
2022/05/27 11:06:22;;;;;;;2.90;1.10;;;;;;;17.69;31.63;101003.50;5080677;28;20473;-48
2022/05/27 11:09:09;;;;;;;8.95;1.08;;;;;;;17.74;31.46;101008.44;5093126;28;20038;-47
2022/05/27 11:11:35;;;;;;;3.72;1.20;;;;;;;17.73;30.88;101001.41;5086250;28;20455;-50
2022/05/27 11:17:31;;;;;;;9.45;1.80;;;;;;;17.91;31.27;100983.91;5077940;28;20509;-49
2022/05/27 11:20:30;;;;;;;4.10;1.05;;;;;;;17.98;30.70;100998.38;5082290;28;20028;-46
2022/05/27 11:23:14;;;;;;;3.38;0.70;;;;;;;18.02;30.59;100987.47;5073898;28;20084;-46
2022/05/27 11:26:06;;;;;;;3.33;0.90;;;;;;;18.02;30.54;100996.31;5078647;28;20380;-47
2022/05/27 11:28:59;;;;;;;3.38;0.90;;;;;;;18.04;30.08;101015.66;5083424;28;20036;-47
2022/05/27 11:31:46;;;;;;;10.50;1.20;;;;;;;18.04;29.26;100973.06;5087617;28;20036;-47
2022/05/27 11:34:17;;;;;;;2.05;0.90;;;;;;;18.01;28.93;101015.91;5088905;28;20039;-46
2022/05/27 11:37:11;;;;;;;4.70;1.05;;;;;;;18.00;28.93;100984.94;5082679;28;20031;-47
2022/05/27 11:40:17;;;;;;;2.28;0.90;;;;;;;18.05;28.89;100989.88;5083124;28;20054;-47
2022/05/27 11:43:10;;;;;;;3.45;0.90;;;;;;;18.06;28.99;100980.94;5086732;28;20073;-47
2022/05/27 11:45:36;;;;;;;2.55;0.95;;;;;;;18.05;28.61;100989.88;5093719;28;20016;-48
2022/05/27 11:48:15;;;;;;;4.63;1.00;;;;;;;18.05;28.30;101000.53;5086155;28;20032;-47
2022/05/27 11:51:05;;;;;;;3.15;0.80;;;;;;;18.05;28.34;100981.91;5080379;28;20109;-47
2022/05/27 11:53:37;;;;;;;5.15;1.05;;;;;;;18.07;28.75;100967.47;5085635;28;20105;-51
2022/05/27 11:56:21;;;;;;;2.85;0.70;;;;;;;18.13;28.76;100990.91;5086367;28;20016;-47
2022/05/27 11:59:05;;;;;;;3.15;0.80;;;;;;;18.20;29.01;100967.25;5085514;28;20157;-47
2022/05/27 12:01:36;;;;;;;4.95;1.08;;;;;;;18.31;29.00;100960.16;5085314;28;20546;-49
2022/05/27 12:04:31;;;;;;;2.75;1.00;;;;;;;18.36;28.81;100977.41;5082044;28;20039;-47
2022/05/27 12:07:08;;;;;;;4.63;1.00;;;;;;;18.45;28.83;100965.13;5079857;28;20036;-46
2022/05/27 12:10:12;;;;;;;1.88;0.85;;;;;;;18.51;28.67;100958.41;5080522;28;20028;-47
2022/05/27 12:12:47;;;;;;;4.20;0.90;;;;;;;18.58;28.98;100964.88;5046589;28;20487;-46
2022/05/27 12:15:24;;;;;;;4.85;1.10;;;;;;;18.59;28.70;100961.25;5079569;28;20111;-46
2022/05/27 12:17:53;;;;;;;2.85;1.05;;;;;;;18.58;28.94;100973.72;5081988;28;20024;-48